VIV4177 MMLO-MMMY
Flight info
| Callsign | VIV4177 |
|---|---|
| Flight time | 1h 7m |
| Altitude | 34000 |
| Route | KARIR1 KARIR UJ31 SLW SLW1B |
| Aircraft | A320/M-SDE3FGHIRWY/LB1 |
Departure
| Time | 2026-04-30 19:27 |
|---|---|
| Airport | Guanajuato International Airport (MMLO) |
Arrival
| Time | 2026-04-30 20:34 |
|---|---|
| Airport | Monterrey International Airport (MMMY) |
| Time | Latitude | Longitude | Altitude | Speed | Heading |
|---|---|---|---|---|---|
| 2026-04-30 19:11 | 20.98636 | -101.47809 | 5911 ft | 0 kts | 225° |
| 2026-04-30 19:17 | 20.98652 | -101.47789 | 5911 ft | 4 kts | 239° |
| 2026-04-30 19:17 | 20.98660 | -101.47764 | 5911 ft | 4 kts | 276° |
| 2026-04-30 19:18 | 20.98648 | -101.47737 | 5911 ft | 1 kts | 314° |
| 2026-04-30 19:22 | 20.98652 | -101.47742 | 5911 ft | 4 kts | 314° |
| 2026-04-30 19:22 | 20.98882 | -101.47883 | 5915 ft | 18 kts | 314° |
| 2026-04-30 19:23 | 20.99207 | -101.48244 | 5923 ft | 27 kts | 309° |
| 2026-04-30 19:24 | 20.99473 | -101.48531 | 5929 ft | 26 kts | 314° |
| 2026-04-30 19:24 | 20.99593 | -101.48655 | 5933 ft | 15 kts | 324° |
| 2026-04-30 19:24 | 20.99753 | -101.48585 | 5935 ft | 13 kts | 339° |
| 2026-04-30 19:25 | 21.00049 | -101.48886 | 5938 ft | 22 kts | 314° |
| 2026-04-30 19:26 | 21.00247 | -101.49108 | 5945 ft | 19 kts | 313° |
| 2026-04-30 19:26 | 21.00383 | -101.49310 | 5952 ft | 15 kts | 356° |
| 2026-04-30 19:26 | 21.00371 | -101.49233 | 5948 ft | 14 kts | 131° |
| 2026-04-30 19:27 | 20.99769 | -101.48584 | 5934 ft | 128 kts | 134° |
| 2026-04-30 19:27 | 20.98123 | -101.46769 | 6760 ft | 186 kts | 136° |
| 2026-04-30 19:28 | 20.97202 | -101.45740 | 7460 ft | 200 kts | 136° |
| 2026-04-30 19:28 | 20.94995 | -101.43350 | 8232 ft | 251 kts | 136° |
| 2026-04-30 19:29 | 20.92423 | -101.40382 | 8783 ft | 290 kts | 121° |
| 2026-04-30 19:29 | 20.91896 | -101.38303 | 9272 ft | 297 kts | 88° |
| 2026-04-30 19:30 | 20.95737 | -101.33155 | 10455 ft | 329 kts | 34° |
| 2026-04-30 19:30 | 20.99654 | -101.30489 | 11363 ft | 339 kts | 23° |
| 2026-04-30 19:31 | 21.03786 | -101.28683 | 12396 ft | 343 kts | 25° |
| 2026-04-30 19:31 | 21.05954 | -101.27595 | 12947 ft | 345 kts | 26° |
| 2026-04-30 19:31 | 21.10298 | -101.25342 | 13799 ft | 349 kts | 26° |
| 2026-04-30 19:32 | 21.12499 | -101.24217 | 14280 ft | 352 kts | 25° |
| 2026-04-30 19:32 | 21.14724 | -101.23097 | 14757 ft | 355 kts | 25° |
| 2026-04-30 19:32 | 21.16979 | -101.21975 | 15222 ft | 358 kts | 24° |
| 2026-04-30 19:32 | 21.19254 | -101.20853 | 15687 ft | 361 kts | 24° |
| 2026-04-30 19:33 | 21.21547 | -101.19725 | 16165 ft | 365 kts | 24° |
| 2026-04-30 19:33 | 21.23863 | -101.18581 | 16641 ft | 367 kts | 24° |
| 2026-04-30 19:33 | 21.26192 | -101.17428 | 17100 ft | 371 kts | 24° |
| 2026-04-30 19:33 | 21.28546 | -101.16262 | 17600 ft | 373 kts | 24° |
| 2026-04-30 19:34 | 21.30915 | -101.15089 | 18073 ft | 376 kts | 24° |
| 2026-04-30 19:34 | 21.33296 | -101.13913 | 18485 ft | 379 kts | 24° |
| 2026-04-30 19:34 | 21.38117 | -101.11533 | 19310 ft | 384 kts | 24° |
| 2026-04-30 19:35 | 21.40548 | -101.10324 | 19721 ft | 386 kts | 24° |
| 2026-04-30 19:35 | 21.42995 | -101.09105 | 20137 ft | 389 kts | 24° |
| 2026-04-30 19:35 | 21.45460 | -101.07879 | 20514 ft | 392 kts | 23° |
| 2026-04-30 19:35 | 21.47952 | -101.06647 | 20918 ft | 395 kts | 23° |
| 2026-04-30 19:36 | 21.50457 | -101.05411 | 21311 ft | 398 kts | 23° |
| 2026-04-30 19:36 | 21.52981 | -101.04162 | 21707 ft | 400 kts | 23° |
| 2026-04-30 19:36 | 21.58294 | -101.02397 | 22482 ft | 403 kts | 6° |
| 2026-04-30 19:37 | 21.61083 | -101.02011 | 22861 ft | 405 kts | 6° |
| 2026-04-30 19:37 | 21.63883 | -101.01623 | 23231 ft | 408 kts | 6° |
| 2026-04-30 19:37 | 21.66671 | -101.01239 | 23552 ft | 410 kts | 6° |
| 2026-04-30 19:37 | 21.69500 | -101.00848 | 23889 ft | 412 kts | 6° |
| 2026-04-30 19:38 | 21.72085 | -101.00489 | 24194 ft | 413 kts | 6° |
| 2026-04-30 19:38 | 21.74449 | -101.00159 | 24425 ft | 414 kts | 6° |
| 2026-04-30 19:38 | 21.77091 | -100.99793 | 24735 ft | 416 kts | 5° |
| 2026-04-30 19:38 | 21.78604 | -100.99582 | 24899 ft | 417 kts | 5° |
| 2026-04-30 19:39 | 21.81680 | -100.99184 | 25194 ft | 418 kts | 5° |
| 2026-04-30 19:39 | 21.84574 | -100.98797 | 25525 ft | 420 kts | 5° |
| 2026-04-30 19:39 | 21.87473 | -100.98392 | 25849 ft | 422 kts | 5° |
| 2026-04-30 19:39 | 21.90393 | -100.97976 | 26181 ft | 424 kts | 5° |
| 2026-04-30 19:40 | 21.93324 | -100.97555 | 26566 ft | 426 kts | 5° |
| 2026-04-30 19:40 | 21.96269 | -100.97135 | 26949 ft | 427 kts | 5° |
| 2026-04-30 19:40 | 21.99222 | -100.96718 | 27329 ft | 429 kts | 5° |
| 2026-04-30 19:40 | 22.02192 | -100.96302 | 27706 ft | 431 kts | 5° |
| 2026-04-30 19:41 | 22.05171 | -100.95887 | 28052 ft | 434 kts | 4° |
| 2026-04-30 19:41 | 22.08168 | -100.95472 | 28442 ft | 435 kts | 4° |
| 2026-04-30 19:41 | 22.11177 | -100.95054 | 28821 ft | 437 kts | 4° |
| 2026-04-30 19:41 | 22.14199 | -100.94634 | 29191 ft | 439 kts | 4° |
| 2026-04-30 19:42 | 22.17229 | -100.94214 | 29538 ft | 441 kts | 4° |
| 2026-04-30 19:42 | 22.20284 | -100.93791 | 29888 ft | 443 kts | 4° |
| 2026-04-30 19:42 | 22.23340 | -100.93365 | 30221 ft | 445 kts | 4° |
| 2026-04-30 19:42 | 22.26419 | -100.93046 | 30505 ft | 443 kts | 357° |
| 2026-04-30 19:43 | 22.29502 | -100.93043 | 30802 ft | 444 kts | 356° |
| 2026-04-30 19:43 | 22.32320 | -100.93048 | 31079 ft | 445 kts | 356° |
| 2026-04-30 19:43 | 22.35421 | -100.93047 | 31369 ft | 446 kts | 356° |
| 2026-04-30 19:44 | 22.41633 | -100.93041 | 31870 ft | 448 kts | 356° |
| 2026-04-30 19:44 | 22.44742 | -100.93034 | 32227 ft | 446 kts | 356° |
| 2026-04-30 19:44 | 22.47838 | -100.93028 | 32610 ft | 443 kts | 356° |
| 2026-04-30 19:44 | 22.50916 | -100.93024 | 32810 ft | 441 kts | 356° |
| 2026-04-30 19:45 | 22.53979 | -100.93021 | 33257 ft | 439 kts | 356° |
| 2026-04-30 19:45 | 22.57026 | -100.93019 | 33600 ft | 438 kts | 356° |
| 2026-04-30 19:45 | 22.60059 | -100.93018 | 33674 ft | 431 kts | 356° |
| 2026-04-30 19:45 | 22.63007 | -100.93014 | 33689 ft | 417 kts | 356° |
| 2026-04-30 19:46 | 22.65876 | -100.93011 | 33687 ft | 410 kts | 356° |
| 2026-04-30 19:46 | 22.71560 | -100.93016 | 33688 ft | 407 kts | 356° |
| 2026-04-30 19:47 | 22.77196 | -100.93017 | 33700 ft | 408 kts | 355° |
| 2026-04-30 19:47 | 22.78620 | -100.93017 | 33697 ft | 409 kts | 355° |
| 2026-04-30 19:48 | 22.83445 | -100.93015 | 33700 ft | 409 kts | 355° |
| 2026-04-30 19:48 | 22.89134 | -100.93011 | 33713 ft | 409 kts | 355° |
| 2026-04-30 19:49 | 22.94822 | -100.93006 | 33707 ft | 409 kts | 356° |
| 2026-04-30 19:49 | 23.03354 | -100.92966 | 33730 ft | 408 kts | 355° |
| 2026-04-30 19:50 | 23.09031 | -100.92997 | 33730 ft | 409 kts | 355° |
| 2026-04-30 19:50 | 23.14724 | -100.93000 | 33750 ft | 409 kts | 355° |
| 2026-04-30 19:51 | 23.20417 | -100.92990 | 33745 ft | 409 kts | 355° |
| 2026-04-30 19:51 | 23.25148 | -100.92997 | 33766 ft | 409 kts | 355° |
| 2026-04-30 19:52 | 23.30834 | -100.92996 | 33763 ft | 409 kts | 355° |
| 2026-04-30 19:52 | 23.36448 | -100.92991 | 33764 ft | 400 kts | 355° |
| 2026-04-30 19:53 | 23.39206 | -100.92975 | 34191 ft | 393 kts | 355° |
| 2026-04-30 19:53 | 23.41947 | -100.92940 | 34304 ft | 397 kts | 355° |
| 2026-04-30 19:53 | 23.47531 | -100.92870 | 34310 ft | 403 kts | 355° |
| 2026-04-30 19:54 | 23.53151 | -100.92803 | 34306 ft | 404 kts | 355° |
| 2026-04-30 19:54 | 23.58769 | -100.92738 | 34311 ft | 404 kts | 355° |
| 2026-04-30 19:55 | 23.64392 | -100.92672 | 34320 ft | 404 kts | 355° |
| 2026-04-30 19:55 | 23.70016 | -100.92602 | 34326 ft | 404 kts | 355° |
| 2026-04-30 19:56 | 23.75640 | -100.92496 | 34330 ft | 404 kts | 355° |
| 2026-04-30 19:56 | 23.81330 | -100.92429 | 34341 ft | 410 kts | 350° |
| 2026-04-30 19:57 | 23.86926 | -100.93114 | 34341 ft | 407 kts | 353° |
| 2026-04-30 19:57 | 23.92619 | -100.92916 | 34338 ft | 410 kts | 358° |
| 2026-04-30 19:58 | 23.98310 | -100.92629 | 34080 ft | 407 kts | 356° |
| 2026-04-30 19:58 | 24.03924 | -100.92581 | 34025 ft | 407 kts | 353° |
| 2026-04-30 19:59 | 24.09600 | -100.92654 | 34025 ft | 408 kts | 353° |
| 2026-04-30 20:00 | 24.18122 | -100.92735 | 34023 ft | 409 kts | 354° |
| 2026-04-30 20:00 | 24.23810 | -100.92748 | 34031 ft | 409 kts | 354° |
| 2026-04-30 20:01 | 24.32350 | -100.92776 | 33679 ft | 409 kts | 354° |
| 2026-04-30 20:01 | 24.35196 | -100.92791 | 33422 ft | 409 kts | 354° |
| 2026-04-30 20:01 | 24.38047 | -100.92806 | 33166 ft | 410 kts | 354° |
| 2026-04-30 20:02 | 24.43767 | -100.92830 | 32657 ft | 412 kts | 354° |
| 2026-04-30 20:02 | 24.46637 | -100.92842 | 32406 ft | 412 kts | 353° |
| 2026-04-30 20:03 | 24.52389 | -100.92866 | 31915 ft | 416 kts | 353° |
| 2026-04-30 20:03 | 24.55281 | -100.92879 | 31670 ft | 415 kts | 353° |
| 2026-04-30 20:03 | 24.58166 | -100.92890 | 31429 ft | 414 kts | 353° |
| 2026-04-30 20:03 | 24.61046 | -100.92899 | 31194 ft | 414 kts | 353° |
| 2026-04-30 20:04 | 24.63918 | -100.92910 | 30970 ft | 412 kts | 353° |
| 2026-04-30 20:04 | 24.66780 | -100.92922 | 30739 ft | 411 kts | 353° |
| 2026-04-30 20:04 | 24.69633 | -100.92936 | 30501 ft | 409 kts | 353° |
| 2026-04-30 20:05 | 24.75318 | -100.92963 | 30047 ft | 407 kts | 352° |
| 2026-04-30 20:05 | 24.78150 | -100.92978 | 29812 ft | 406 kts | 352° |
| 2026-04-30 20:05 | 24.83754 | -100.93004 | 29273 ft | 404 kts | 353° |
| 2026-04-30 20:06 | 24.86562 | -100.93007 | 29038 ft | 403 kts | 353° |
| 2026-04-30 20:06 | 24.89362 | -100.93004 | 28764 ft | 402 kts | 353° |
| 2026-04-30 20:06 | 24.92147 | -100.92997 | 28503 ft | 400 kts | 353° |
| 2026-04-30 20:06 | 24.94927 | -100.92994 | 28264 ft | 398 kts | 353° |
| 2026-04-30 20:07 | 24.97693 | -100.92993 | 28008 ft | 397 kts | 353° |
| 2026-04-30 20:07 | 25.00451 | -100.92989 | 27770 ft | 396 kts | 353° |
| 2026-04-30 20:07 | 25.05942 | -100.92985 | 27269 ft | 393 kts | 353° |
| 2026-04-30 20:08 | 25.08676 | -100.92985 | 27023 ft | 392 kts | 353° |
| 2026-04-30 20:08 | 25.11400 | -100.92987 | 26798 ft | 391 kts | 353° |
| 2026-04-30 20:08 | 25.14118 | -100.92988 | 26555 ft | 390 kts | 353° |
| 2026-04-30 20:08 | 25.16827 | -100.92990 | 26315 ft | 389 kts | 353° |
| 2026-04-30 20:09 | 25.19527 | -100.92990 | 26071 ft | 388 kts | 353° |
| 2026-04-30 20:09 | 25.22219 | -100.92990 | 25840 ft | 386 kts | 353° |
| 2026-04-30 20:09 | 25.27571 | -100.92982 | 25388 ft | 383 kts | 353° |
| 2026-04-30 20:10 | 25.32875 | -100.92983 | 25013 ft | 379 kts | 354° |
| 2026-04-30 20:10 | 25.35511 | -100.92983 | 24796 ft | 378 kts | 354° |
| 2026-04-30 20:10 | 25.38137 | -100.92979 | 24590 ft | 378 kts | 354° |
| 2026-04-30 20:11 | 25.43385 | -100.92976 | 24177 ft | 376 kts | 354° |
| 2026-04-30 20:11 | 25.45996 | -100.92978 | 23972 ft | 375 kts | 354° |
| 2026-04-30 20:11 | 25.48603 | -100.92783 | 23749 ft | 380 kts | 8° |
| 2026-04-30 20:12 | 25.53075 | -100.89687 | 23270 ft | 397 kts | 51° |
| 2026-04-30 20:12 | 25.54345 | -100.86981 | 23002 ft | 400 kts | 73° |
| 2026-04-30 20:12 | 25.54706 | -100.83942 | 22760 ft | 399 kts | 90° |
| 2026-04-30 20:13 | 25.54737 | -100.80869 | 22481 ft | 399 kts | 90° |
| 2026-04-30 20:13 | 25.54753 | -100.77806 | 22211 ft | 397 kts | 90° |
| 2026-04-30 20:13 | 25.54764 | -100.74758 | 21943 ft | 395 kts | 90° |
| 2026-04-30 20:13 | 25.54779 | -100.71725 | 21680 ft | 393 kts | 90° |
| 2026-04-30 20:14 | 25.54796 | -100.68707 | 21418 ft | 391 kts | 90° |
| 2026-04-30 20:14 | 25.54816 | -100.65713 | 21154 ft | 389 kts | 90° |
| 2026-04-30 20:14 | 25.54836 | -100.62726 | 20895 ft | 387 kts | 90° |
| 2026-04-30 20:14 | 25.54855 | -100.59750 | 20638 ft | 385 kts | 91° |
| 2026-04-30 20:15 | 25.54871 | -100.56796 | 20398 ft | 383 kts | 91° |
| 2026-04-30 20:15 | 25.54887 | -100.53858 | 20144 ft | 382 kts | 91° |
| 2026-04-30 20:15 | 25.54901 | -100.50927 | 19906 ft | 379 kts | 91° |
| 2026-04-30 20:15 | 25.54914 | -100.48026 | 19668 ft | 373 kts | 92° |
| 2026-04-30 20:16 | 25.54927 | -100.45176 | 19437 ft | 367 kts | 91° |
| 2026-04-30 20:16 | 25.54944 | -100.42374 | 19204 ft | 361 kts | 91° |
| 2026-04-30 20:16 | 25.54961 | -100.39593 | 18968 ft | 360 kts | 91° |
| 2026-04-30 20:16 | 25.54976 | -100.36847 | 18738 ft | 354 kts | 92° |
| 2026-04-30 20:17 | 25.54987 | -100.34184 | 18518 ft | 350 kts | 92° |
| 2026-04-30 20:17 | 25.54994 | -100.31506 | 18313 ft | 345 kts | 92° |
| 2026-04-30 20:17 | 25.55052 | -100.28868 | 18079 ft | 341 kts | 85° |
| 2026-04-30 20:17 | 25.55578 | -100.26340 | 17909 ft | 332 kts | 69° |
| 2026-04-30 20:18 | 25.56581 | -100.24122 | 18053 ft | 315 kts | 57° |
| 2026-04-30 20:18 | 25.57941 | -100.22253 | 17855 ft | 310 kts | 42° |
| 2026-04-30 20:18 | 25.59608 | -100.20797 | 17687 ft | 302 kts | 28° |
| 2026-04-30 20:18 | 25.61378 | -100.19574 | 17493 ft | 297 kts | 28° |
| 2026-04-30 20:19 | 25.63112 | -100.18372 | 17321 ft | 291 kts | 28° |
| 2026-04-30 20:19 | 25.64238 | -100.17590 | 17213 ft | 287 kts | 28° |
| 2026-04-30 20:19 | 25.66467 | -100.16036 | 16982 ft | 279 kts | 28° |
| 2026-04-30 20:19 | 25.68094 | -100.14899 | 16821 ft | 273 kts | 29° |
| 2026-04-30 20:20 | 25.69688 | -100.13783 | 16670 ft | 268 kts | 28° |
| 2026-04-30 20:20 | 25.71253 | -100.12686 | 16518 ft | 263 kts | 29° |
| 2026-04-30 20:20 | 25.72749 | -100.11639 | 16370 ft | 253 kts | 28° |
| 2026-04-30 20:20 | 25.74233 | -100.10600 | 16201 ft | 244 kts | 28° |
| 2026-04-30 20:21 | 25.75644 | -100.09612 | 16064 ft | 235 kts | 28° |
| 2026-04-30 20:21 | 25.76979 | -100.08679 | 15936 ft | 226 kts | 28° |
| 2026-04-30 20:21 | 25.78283 | -100.07767 | 15804 ft | 217 kts | 28° |
| 2026-04-30 20:21 | 25.79516 | -100.06903 | 15712 ft | 201 kts | 28° |
| 2026-04-30 20:22 | 25.80657 | -100.06101 | 15565 ft | 188 kts | 28° |
| 2026-04-30 20:22 | 25.81778 | -100.05317 | 15492 ft | 198 kts | 28° |
| 2026-04-30 20:22 | 25.83014 | -100.04463 | 15355 ft | 221 kts | 28° |
| 2026-04-30 20:22 | 25.84413 | -100.03502 | 15196 ft | 252 kts | 29° |
| 2026-04-30 20:23 | 25.86003 | -100.02403 | 15027 ft | 287 kts | 30° |
| 2026-04-30 20:23 | 25.87818 | -100.01154 | 14714 ft | 324 kts | 27° |
| 2026-04-30 20:23 | 25.89954 | -100.00325 | 14383 ft | 328 kts | 3° |
| 2026-04-30 20:23 | 25.92196 | -100.00501 | 14063 ft | 321 kts | 339° |
| 2026-04-30 20:24 | 25.94163 | -100.01603 | 13567 ft | 317 kts | 316° |
| 2026-04-30 20:24 | 25.95585 | -100.03430 | 13073 ft | 312 kts | 298° |
| 2026-04-30 20:24 | 25.96742 | -100.05485 | 12568 ft | 316 kts | 298° |
| 2026-04-30 20:24 | 25.97921 | -100.07570 | 12034 ft | 319 kts | 299° |
| 2026-04-30 20:25 | 26.00222 | -100.11607 | 11156 ft | 301 kts | 299° |
| 2026-04-30 20:25 | 26.01334 | -100.13554 | 10728 ft | 297 kts | 300° |
| 2026-04-30 20:26 | 26.03526 | -100.17403 | 9841 ft | 292 kts | 298° |
| 2026-04-30 20:26 | 26.03926 | -100.21678 | 8981 ft | 283 kts | 244° |
| 2026-04-30 20:26 | 26.02790 | -100.23389 | 8566 ft | 273 kts | 218° |
| 2026-04-30 20:27 | 25.99661 | -100.25571 | 7840 ft | 260 kts | 211° |
| 2026-04-30 20:27 | 25.96643 | -100.27587 | 7110 ft | 249 kts | 211° |
| 2026-04-30 20:28 | 25.93769 | -100.29515 | 6454 ft | 236 kts | 211° |
| 2026-04-30 20:28 | 25.91026 | -100.31297 | 5708 ft | 219 kts | 199° |
| 2026-04-30 20:29 | 25.88586 | -100.30290 | 5187 ft | 193 kts | 120° |
| 2026-04-30 20:30 | 25.86772 | -100.26972 | 4490 ft | 144 kts | 120° |
| 2026-04-30 20:30 | 25.85268 | -100.24226 | 3930 ft | 135 kts | 120° |
| 2026-04-30 20:31 | 25.83787 | -100.21522 | 3305 ft | 137 kts | 118° |
| 2026-04-30 20:32 | 25.82310 | -100.18817 | 2762 ft | 136 kts | 120° |
| 2026-04-30 20:32 | 25.81337 | -100.17051 | 2407 ft | 132 kts | 119° |
| 2026-04-30 20:33 | 25.80858 | -100.16178 | 2237 ft | 134 kts | 119° |
| 2026-04-30 20:33 | 25.79883 | -100.14408 | 2067 ft | 130 kts | 121° |
| 2026-04-30 20:33 | 25.79389 | -100.13547 | 1875 ft | 133 kts | 121° |
| 2026-04-30 20:34 | 25.78473 | -100.11810 | 1358 ft | 127 kts | 122° |
| 2026-04-30 20:34 | 25.77931 | -100.10840 | 1271 ft | 39 kts | 122° |
| 2026-04-30 20:35 | 25.77857 | -100.10774 | 1272 ft | 3 kts | 250° |
| 2026-04-30 20:35 | 25.77859 | -100.10850 | 1272 ft | 19 kts | 271° |
| 2026-04-30 20:35 | 25.77888 | -100.11160 | 1275 ft | 21 kts | 299° |
| 2026-04-30 20:36 | 25.77964 | -100.11300 | 1277 ft | 21 kts | 301° |
| 2026-04-30 20:36 | 25.77981 | -100.11397 | 1279 ft | 11 kts | 223° |
| 2026-04-30 20:36 | 25.77946 | -100.11422 | 1278 ft | 0 kts | 211° |